createdAt,value
2024-04-13T00:00:46.760Z,98793.77
2024-04-13T00:03:34.573Z,98793.61
2024-04-13T00:06:02.633Z,98792.52
2024-04-13T00:08:30.458Z,98794.31
2024-04-13T00:10:58.247Z,98793.29
2024-04-13T00:13:28.174Z,98790.49
2024-04-13T00:15:56.938Z,98793.18
2024-04-13T00:18:25.045Z,98792.27
2024-04-13T00:20:52.826Z,98791.38
2024-04-13T00:23:20.536Z,98789.63
2024-04-13T00:25:52.434Z,98788.98
2024-04-13T00:28:20.235Z,98788.17
2024-04-13T00:30:47.942Z,98788.70
2024-04-13T00:33:15.925Z,98787.98
2024-04-13T00:35:44.109Z,98786.89
2024-04-13T00:38:15.348Z,98783.67
2024-04-13T00:40:43.269Z,98785.93
2024-04-13T00:43:12.707Z,98781.56
2024-04-13T00:45:44.945Z,98784.31
2024-04-13T00:48:20.892Z,98782.15
2024-04-13T00:50:55.168Z,98778.20
2024-04-13T00:53:23.130Z,98787.89
2024-04-13T00:55:51.151Z,98783.16
2024-04-13T00:58:26.340Z,98787.19
2024-04-13T01:00:58.295Z,98785.59
2024-04-13T01:03:27.262Z,98779.77
2024-04-13T01:05:56.733Z,98781.09
2024-04-13T01:08:25.763Z,98777.64
2024-04-13T01:10:53.781Z,98778.71
2024-04-13T01:13:22.383Z,98771.71
2024-04-13T01:15:50.158Z,98772.47
2024-04-13T01:18:18.198Z,98771.87
2024-04-13T01:20:46.168Z,98771.24
2024-04-13T01:23:15.811Z,98774.23
2024-04-13T01:25:43.743Z,98773.12
2024-04-13T01:28:13.722Z,98769.65
2024-04-13T01:30:41.814Z,98770.95
2024-04-13T01:33:10.858Z,98767.30
2024-04-13T01:35:39.985Z,98768.52
2024-04-13T01:38:07.869Z,98764.80
2024-04-13T01:40:35.608Z,98762.60
2024-04-13T01:43:03.421Z,98764.45
2024-04-13T01:45:31.196Z,98765.56
2024-04-13T01:47:59.027Z,98764.20
2024-04-13T01:50:26.897Z,98762.21
2024-04-13T01:52:54.695Z,98763.74
2024-04-13T01:55:22.639Z,98765.01
2024-04-13T01:57:50.475Z,98766.70
2024-04-13T02:00:19.331Z,98763.33
2024-04-13T02:02:47.539Z,98760.50
2024-04-13T02:05:15.426Z,98760.90
2024-04-13T02:07:43.249Z,98756.39
2024-04-13T02:10:11.334Z,98756.79
2024-04-13T02:12:39.089Z,98762.56
2024-04-13T02:15:07.201Z,98758.88
2024-04-13T02:17:35.451Z,98756.52
2024-04-13T02:20:04.036Z,98756.07
2024-04-13T02:22:36.424Z,98755.34
2024-04-13T02:25:04.449Z,98754.42
2024-04-13T02:27:32.708Z,98758.46
2024-04-13T02:30:01.057Z,98759.91
2024-04-13T02:32:29.730Z,98764.99
2024-04-13T02:34:57.521Z,98761.58
2024-04-13T02:37:25.286Z,98762.20
2024-04-13T02:39:53.084Z,98762.91
2024-04-13T02:42:20.912Z,98762.25
2024-04-13T02:44:48.830Z,98759.39
2024-04-13T02:47:16.636Z,98756.20
2024-04-13T02:49:44.385Z,98754.34
2024-04-13T02:52:12.122Z,98753.82
2024-04-13T02:54:39.805Z,98752.67
2024-04-13T02:57:07.512Z,98752.95
2024-04-13T02:59:35.441Z,98748.71
2024-04-13T03:02:03.178Z,98747.92
2024-04-13T03:04:32.362Z,98747.08
2024-04-13T03:07:03.299Z,98744.65
2024-04-13T03:09:31.078Z,98749.16
2024-04-13T03:11:58.929Z,98748.14
2024-04-13T03:14:28.882Z,98750.37
2024-04-13T03:16:56.661Z,98750.71
2024-04-13T03:19:25.159Z,98752.86
2024-04-13T03:21:53.076Z,98751.58
2024-04-13T03:24:20.883Z,98750.39
2024-04-13T03:26:48.614Z,98751.16
2024-04-13T03:29:16.445Z,98755.38
2024-04-13T03:31:44.254Z,98757.48
2024-04-13T03:34:12.060Z,98756.59
2024-04-13T03:36:41.541Z,98762.70
2024-04-13T03:39:09.337Z,98760.48
2024-04-13T03:41:37.108Z,98763.27
2024-04-13T03:44:05.097Z,98764.42
2024-04-13T03:46:32.885Z,98763.59
2024-04-13T03:49:00.689Z,98768.83
2024-04-13T03:51:28.683Z,98766.02
2024-04-13T03:53:57.738Z,98766.10
2024-04-13T03:56:25.531Z,98765.88
2024-04-13T03:58:53.767Z,98770.95
2024-04-13T04:01:21.661Z,98766.38
2024-04-13T04:03:50.265Z,98770.95
2024-04-13T04:06:19.261Z,98773.60
2024-04-13T04:08:47.013Z,98770.54
2024-04-13T04:11:14.683Z,98769.95
2024-04-13T04:13:42.544Z,98778.77
2024-04-13T04:16:10.414Z,98778.31
2024-04-13T04:18:38.325Z,98779.23
2024-04-13T04:21:06.385Z,98781.95
2024-04-13T04:23:34.252Z,98782.90
2024-04-13T04:26:03.142Z,98782.64
2024-04-13T04:28:31.045Z,98785.30
2024-04-13T04:31:12.318Z,98789.02
2024-04-13T04:33:40.339Z,98783.27
2024-04-13T04:36:10.050Z,98788.87
2024-04-13T04:38:38.156Z,98791.67
2024-04-13T04:41:06.135Z,98789.40
2024-04-13T04:43:34.022Z,98788.32
2024-04-13T04:46:01.970Z,98794.17
2024-04-13T04:48:30.070Z,98792.76
2024-04-13T04:50:59.060Z,98792.38
2024-04-13T04:53:29.732Z,98794.85
2024-04-13T04:56:00.576Z,98789.55
2024-04-13T04:58:28.621Z,98790.21
2024-04-13T05:00:56.450Z,98790.48
2024-04-13T05:03:26.096Z,98790.95
2024-04-13T05:05:54.070Z,98791.22
2024-04-13T05:08:22.080Z,98792.02
2024-04-13T05:10:50.138Z,98790.48
2024-04-13T05:13:18.737Z,98786.80
2024-04-13T05:15:46.489Z,98785.63
2024-04-13T05:18:14.502Z,98784.09
2024-04-13T05:20:42.386Z,98786.01
2024-04-13T05:23:10.177Z,98777.69
2024-04-13T05:25:37.933Z,98780.58
2024-04-13T05:28:05.845Z,98781.90
2024-04-13T05:30:33.653Z,98779.85
2024-04-13T05:33:02.095Z,98778.28
2024-04-13T05:35:30.338Z,98776.88
2024-04-13T05:37:58.104Z,98776.93
2024-04-13T05:40:26.259Z,98770.00
2024-04-13T05:42:54.074Z,98771.16
2024-04-13T05:45:21.984Z,98768.23
2024-04-13T05:47:50.313Z,98765.13
2024-04-13T05:50:18.166Z,98765.61
2024-04-13T05:52:46.182Z,98762.44
2024-04-13T05:55:14.068Z,98764.42
2024-04-13T05:57:41.963Z,98767.48
2024-04-13T06:00:10.680Z,98765.47
2024-04-13T06:02:39.024Z,98760.43
2024-04-13T06:05:07.190Z,98756.96
2024-04-13T06:07:35.237Z,98753.34
2024-04-13T06:10:06.075Z,98754.60
2024-04-13T06:12:34.018Z,98753.03
2024-04-13T06:15:02.075Z,98755.20
2024-04-13T06:17:29.934Z,98756.55
2024-04-13T06:19:57.674Z,98759.75
2024-04-13T06:22:25.487Z,98760.13
2024-04-13T06:24:54.058Z,98759.20
2024-04-13T06:27:22.223Z,98760.95
2024-04-13T06:29:51.295Z,98763.48
2024-04-13T06:32:19.399Z,98760.91
2024-04-13T06:34:48.120Z,98759.13
2024-04-13T06:37:16.072Z,98761.22
2024-04-13T06:39:44.016Z,98764.03
2024-04-13T06:42:11.903Z,98763.92
2024-04-13T06:44:39.824Z,98769.28
2024-04-13T06:47:07.822Z,98776.59
2024-04-13T06:49:35.953Z,98776.06
2024-04-13T06:52:04.213Z,98773.83
2024-04-13T06:54:32.221Z,98773.69
2024-04-13T06:56:59.970Z,98772.70
2024-04-13T06:59:27.702Z,98770.64
2024-04-13T07:01:55.509Z,98772.97
2024-04-13T07:04:23.401Z,98769.04
2024-04-13T07:06:51.270Z,98765.16
2024-04-13T07:09:21.894Z,98764.03
2024-04-13T07:11:49.830Z,98766.28
2024-04-13T07:14:17.635Z,98770.29
2024-04-13T07:16:45.969Z,98767.61
2024-04-13T07:19:13.798Z,98765.13
2024-04-13T07:21:41.763Z,98758.12
2024-04-13T07:24:09.709Z,98757.65
2024-04-13T07:26:37.523Z,98761.59
2024-04-13T07:29:05.291Z,98762.13
2024-04-13T07:31:33.168Z,98761.15
2024-04-13T07:34:01.004Z,98755.23
2024-04-13T07:36:28.889Z,98750.05
2024-04-13T07:38:56.743Z,98752.44
2024-04-13T07:41:24.641Z,98752.98
2024-04-13T07:43:52.548Z,98755.89
2024-04-13T07:46:22.105Z,98757.55
2024-04-13T07:48:49.951Z,98754.89
2024-04-13T07:51:17.890Z,98756.66
2024-04-13T07:53:45.703Z,98758.64
2024-04-13T07:56:15.401Z,98755.68
2024-04-13T07:58:43.453Z,98754.84
2024-04-13T08:01:11.398Z,98754.66
2024-04-13T08:03:39.242Z,98757.23
2024-04-13T08:06:07.422Z,98758.07
2024-04-13T08:08:35.246Z,98760.37
2024-04-13T08:11:07.246Z,98759.89
2024-04-13T08:13:35.057Z,98755.66
2024-04-13T08:16:09.050Z,98752.27
2024-04-13T08:18:37.735Z,98750.14
2024-04-13T08:21:05.540Z,98744.14
2024-04-13T08:23:33.481Z,98742.88
2024-04-13T08:26:04.931Z,98744.68
2024-04-13T08:28:32.943Z,98749.21
2024-04-13T08:31:05.752Z,98748.25
2024-04-13T08:33:34.146Z,98746.52
2024-04-13T08:36:06.727Z,98744.25
2024-04-13T08:38:34.446Z,98744.92
2024-04-13T08:41:13.751Z,98742.73
2024-04-13T08:43:41.526Z,98739.98
2024-04-13T08:46:09.731Z,98737.39
2024-04-13T08:48:40.107Z,98734.69
2024-04-13T08:51:11.132Z,98734.11
2024-04-13T08:53:43.812Z,98732.95
2024-04-13T08:56:12.592Z,98724.14
2024-04-13T08:58:43.387Z,98726.52
2024-04-13T09:01:17.213Z,98729.38
2024-04-13T09:03:45.565Z,98721.30
2024-04-13T09:06:14.027Z,98720.06
2024-04-13T09:08:43.982Z,98717.52
2024-04-13T09:11:12.049Z,98711.05
2024-04-13T09:13:42.186Z,98709.88
2024-04-13T09:16:10.660Z,98708.36
2024-04-13T09:18:41.459Z,98707.14
2024-04-13T09:21:09.503Z,98709.17
2024-04-13T09:23:37.394Z,98701.95
2024-04-13T09:26:06.827Z,98690.98
2024-04-13T09:28:42.373Z,98693.58
2024-04-13T09:31:12.097Z,98689.60
2024-04-13T09:33:40.275Z,98684.92
2024-04-13T09:36:11.339Z,98678.34
2024-04-13T09:38:39.378Z,98676.00
2024-04-13T09:41:08.319Z,98675.62
2024-04-13T09:43:37.175Z,98674.45
2024-04-13T09:46:06.077Z,98674.15
2024-04-13T09:48:33.964Z,98673.26
2024-04-13T09:51:02.113Z,98673.77
2024-04-13T09:53:31.045Z,98670.06
2024-04-13T09:55:59.346Z,98671.21
2024-04-13T09:58:27.251Z,98669.68
2024-04-13T10:00:55.828Z,98668.80
2024-04-13T10:03:23.867Z,98662.56
2024-04-13T10:05:55.285Z,98656.16
2024-04-13T10:08:28.767Z,98656.76
2024-04-13T10:10:57.779Z,98655.18
2024-04-13T10:13:30.790Z,98652.39
2024-04-13T10:16:00.213Z,98648.83
2024-04-13T10:18:28.560Z,98647.23
2024-04-13T10:21:06.578Z,98641.58
2024-04-13T10:23:41.743Z,98639.37
2024-04-13T10:26:10.025Z,98633.50
2024-04-13T10:28:39.221Z,98636.59
2024-04-13T10:31:18.247Z,98629.09
2024-04-13T10:33:57.151Z,98626.58
2024-04-13T10:36:33.494Z,98626.61
2024-04-13T10:39:06.234Z,98626.13
2024-04-13T10:41:39.091Z,98622.36
2024-04-13T10:44:08.598Z,98622.92
2024-04-13T10:46:36.435Z,98621.69
2024-04-13T10:49:05.280Z,98622.62
2024-04-13T10:51:33.344Z,98617.30
2024-04-13T10:54:02.351Z,98616.64
2024-04-13T10:56:31.093Z,98616.02
2024-04-13T10:58:58.933Z,98611.20
2024-04-13T11:01:26.947Z,98609.75
2024-04-13T11:04:06.349Z,98611.61
2024-04-13T11:06:34.159Z,98605.95
2024-04-13T11:09:02.140Z,98604.30
2024-04-13T11:11:30.191Z,98606.02
2024-04-13T11:13:58.173Z,98602.17
2024-04-13T11:16:26.321Z,98600.35
2024-04-13T11:18:54.861Z,98598.73
2024-04-13T11:21:24.118Z,98594.27
2024-04-13T11:23:52.455Z,98585.52
2024-04-13T11:26:21.667Z,98581.95
2024-04-13T11:28:49.554Z,98588.95
2024-04-13T11:31:17.430Z,98586.22
2024-04-13T11:33:45.383Z,98587.62
2024-04-13T11:36:19.464Z,98583.27
2024-04-13T11:38:48.087Z,98580.16
2024-04-13T11:41:18.075Z,98572.66
2024-04-13T11:43:53.931Z,98567.86
2024-04-13T11:46:21.963Z,98564.66
2024-04-13T11:48:51.386Z,98560.15
2024-04-13T11:51:20.617Z,98564.73
2024-04-13T11:53:50.834Z,98557.73
2024-04-13T11:56:20.215Z,98551.27
2024-04-13T11:58:52.858Z,98550.09
2024-04-13T12:01:22.172Z,98550.16
2024-04-13T12:03:50.043Z,98549.30
2024-04-13T12:06:18.039Z,98546.95
2024-04-13T12:08:45.818Z,98545.41
2024-04-13T12:11:13.577Z,98544.39
2024-04-13T12:13:41.424Z,98538.70
2024-04-13T12:16:09.201Z,98538.31
2024-04-13T12:18:37.164Z,98539.23
2024-04-13T12:21:05.720Z,98531.82
2024-04-13T12:23:33.878Z,98523.77
2024-04-13T12:26:02.368Z,98521.33
2024-04-13T12:28:30.171Z,98521.06
2024-04-13T12:30:57.926Z,98518.45
2024-04-13T12:33:25.868Z,98511.61
2024-04-13T12:35:59.666Z,98510.83
2024-04-13T12:38:28.854Z,98507.95
2024-04-13T12:40:56.633Z,98502.70
2024-04-13T12:43:24.370Z,98505.92
2024-04-13T12:45:52.411Z,98507.96
2024-04-13T12:48:20.331Z,98504.66
2024-04-13T12:50:48.278Z,98501.00
2024-04-13T12:53:16.097Z,98502.98
2024-04-13T12:55:43.846Z,98503.31
2024-04-13T12:58:13.586Z,98502.80
2024-04-13T13:00:41.327Z,98505.00
2024-04-13T13:03:09.688Z,98501.58
2024-04-13T13:05:37.957Z,98503.88
2024-04-13T13:08:05.928Z,98500.80
2024-04-13T13:10:34.855Z,98496.89
2024-04-13T13:13:02.630Z,98500.17
2024-04-13T13:15:30.390Z,98496.81
2024-04-13T13:17:58.204Z,98496.10
2024-04-13T13:20:26.289Z,98495.04
2024-04-13T13:22:54.028Z,98500.34
2024-04-13T13:25:21.791Z,98491.23
2024-04-13T13:27:50.663Z,98490.40
2024-04-13T13:30:18.550Z,98492.88
2024-04-13T13:32:46.690Z,98487.80
2024-04-13T13:35:14.492Z,98491.39
2024-04-13T13:37:42.280Z,98490.90
2024-04-13T13:40:12.493Z,98490.86
2024-04-13T13:42:40.356Z,98495.55
2024-04-13T13:45:08.126Z,98491.30
2024-04-13T13:47:35.963Z,98493.70
2024-04-13T13:50:04.054Z,98495.94
2024-04-13T13:52:31.941Z,98489.42
2024-04-13T13:54:59.810Z,98484.61
2024-04-13T13:57:27.910Z,98481.13
2024-04-13T13:59:55.740Z,98483.09
2024-04-13T14:02:24.227Z,98479.50
2024-04-13T14:04:52.260Z,98482.23
2024-04-13T14:07:20.110Z,98484.15
2024-04-13T14:09:50.080Z,98476.51
2024-04-13T14:12:18.009Z,98474.41
2024-04-13T14:14:45.778Z,98474.27
2024-04-13T14:17:13.462Z,98472.45
2024-04-13T14:19:41.249Z,98471.37
2024-04-13T14:22:10.442Z,98469.05
2024-04-13T14:24:39.241Z,98468.41
2024-04-13T14:27:07.013Z,98465.89
2024-04-13T14:29:34.817Z,98468.11
2024-04-13T14:32:02.675Z,98463.39
2024-04-13T14:34:30.509Z,98460.15
2024-04-13T14:36:58.492Z,98459.32
2024-04-13T14:39:26.253Z,98456.55
2024-04-13T14:41:53.998Z,98453.41
2024-04-13T14:44:21.827Z,98463.32
2024-04-13T14:46:49.615Z,98461.81
2024-04-13T14:49:20.775Z,98462.98
2024-04-13T14:51:48.799Z,98461.36
2024-04-13T14:54:16.617Z,98459.17
2024-04-13T14:56:47.012Z,98462.84
2024-04-13T14:59:14.749Z,98458.52
2024-04-13T15:01:42.860Z,98456.98
2024-04-13T15:04:10.857Z,98458.41
2024-04-13T15:06:38.939Z,98459.37
2024-04-13T15:09:06.860Z,98458.52
2024-04-13T15:11:34.824Z,98455.98
2024-04-13T15:14:02.678Z,98459.59
2024-04-13T15:16:30.466Z,98461.45
2024-04-13T15:18:58.578Z,98463.15
2024-04-13T15:21:26.451Z,98463.67
2024-04-13T15:23:56.388Z,98461.77
2024-04-13T15:26:26.148Z,98458.69
2024-04-13T15:28:55.159Z,98456.75
2024-04-13T15:31:26.461Z,98456.12
2024-04-13T15:33:54.342Z,98454.33
2024-04-13T15:36:22.290Z,98450.77
2024-04-13T15:38:50.031Z,98448.96
2024-04-13T15:41:17.884Z,98451.02
2024-04-13T15:43:46.060Z,98450.16
2024-04-13T15:46:13.890Z,98448.73
2024-04-13T15:48:41.763Z,98448.15
2024-04-13T15:51:09.693Z,98447.52
2024-04-13T15:53:37.457Z,98449.47
2024-04-13T15:56:06.172Z,98445.98
2024-04-13T15:58:33.930Z,98449.30
2024-04-13T16:01:02.977Z,98448.54
2024-04-13T16:03:30.834Z,98444.95
2024-04-13T16:05:58.782Z,98445.32
2024-04-13T16:08:26.513Z,98441.88
2024-04-13T16:10:54.370Z,98441.40
2024-04-13T16:13:22.270Z,98442.08
2024-04-13T16:15:50.134Z,98446.08
2024-04-13T16:18:18.020Z,98448.71
2024-04-13T16:20:46.784Z,98447.72
2024-04-13T16:23:16.040Z,98446.19
2024-04-13T16:25:43.784Z,98447.50
2024-04-13T16:28:11.706Z,98448.35
2024-04-13T16:30:39.609Z,98446.31
2024-04-13T16:33:09.396Z,98453.00
2024-04-13T16:35:37.270Z,98457.04
2024-04-13T16:38:05.318Z,98456.29
2024-04-13T16:40:33.132Z,98459.77
2024-04-13T16:43:01.005Z,98463.08
2024-04-13T16:45:28.886Z,98466.92
2024-04-13T16:47:56.793Z,98466.02
2024-04-13T16:50:24.760Z,98467.62
2024-04-13T16:52:52.530Z,98472.27
2024-04-13T16:55:20.352Z,98478.30
2024-04-13T16:57:48.130Z,98480.36
2024-04-13T17:00:15.896Z,98482.80
2024-04-13T17:02:44.568Z,98489.98
2024-04-13T17:05:12.351Z,98493.46
2024-04-13T17:07:40.041Z,98497.98
2024-04-13T17:10:08.099Z,98498.14
2024-04-13T17:12:35.997Z,98500.70
2024-04-13T17:15:06.936Z,98501.14
2024-04-13T17:17:35.017Z,98504.99
2024-04-13T17:20:02.972Z,98507.86
2024-04-13T17:22:30.792Z,98506.80
2024-04-13T17:24:58.490Z,98505.86
2024-04-13T17:27:26.442Z,98505.94
2024-04-13T17:29:54.317Z,98506.98
2024-04-13T17:32:22.037Z,98507.37
2024-04-13T17:34:49.941Z,98509.16
2024-04-13T17:37:17.698Z,98507.64
2024-04-13T17:39:45.617Z,98507.70
2024-04-13T17:42:13.502Z,98504.62
2024-04-13T17:44:41.404Z,98503.23
2024-04-13T17:47:09.188Z,98506.94
2024-04-13T17:49:38.105Z,98507.52
2024-04-13T17:52:05.931Z,98513.39
2024-04-13T17:54:33.792Z,98521.63
2024-04-13T17:57:01.588Z,98526.87
2024-04-13T17:59:29.406Z,98532.38
2024-04-13T18:01:57.198Z,98535.94
2024-04-13T18:04:24.987Z,98539.36
2024-04-13T18:06:52.852Z,98540.77
2024-04-13T18:09:20.687Z,98545.32
2024-04-13T18:11:48.532Z,98545.30
2024-04-13T18:14:16.325Z,98546.23
2024-04-13T18:16:44.169Z,98546.73
2024-04-13T18:19:12.300Z,98551.05
2024-04-13T18:21:40.197Z,98552.08
2024-04-13T18:24:08.937Z,98552.42
2024-04-13T18:26:36.769Z,98553.69
2024-04-13T18:29:04.525Z,98554.66
2024-04-13T18:31:32.769Z,98556.85
2024-04-13T18:34:03.721Z,98559.78
2024-04-13T18:36:33.882Z,98562.23
2024-04-13T18:39:01.668Z,98562.73
2024-04-13T18:41:29.800Z,98563.64
2024-04-13T18:43:57.665Z,98564.41
2024-04-13T18:46:25.943Z,98567.37
2024-04-13T18:48:53.746Z,98563.60
2024-04-13T18:51:21.586Z,98561.31
2024-04-13T18:53:49.388Z,98563.89
2024-04-13T18:56:17.125Z,98565.91
2024-04-13T18:58:45.057Z,98563.96
2024-04-13T19:01:13.388Z,98561.17
2024-04-13T19:03:41.534Z,98563.08
2024-04-13T19:06:10.728Z,98565.96
2024-04-13T19:08:38.701Z,98563.89
2024-04-13T19:11:06.502Z,98567.75
2024-04-13T19:13:34.224Z,98568.17
2024-04-13T19:16:09.317Z,98571.14
2024-04-13T19:18:40.122Z,98576.99
2024-04-13T19:21:09.209Z,98578.60
2024-04-13T19:23:37.178Z,98575.55
2024-04-13T19:26:05.002Z,98579.43
2024-04-13T19:28:32.788Z,98575.83
2024-04-13T19:31:00.910Z,98580.98
2024-04-13T19:33:29.968Z,98580.91
2024-04-13T19:35:57.998Z,98580.79
2024-04-13T19:38:26.460Z,98579.30
2024-04-13T19:40:54.227Z,98576.66
2024-04-13T19:43:22.062Z,98579.20
2024-04-13T19:45:50.054Z,98578.27
2024-04-13T19:48:18.145Z,98576.80
2024-04-13T19:50:45.944Z,98574.15
2024-04-13T19:53:13.755Z,98573.83
2024-04-13T19:55:41.577Z,98576.27
2024-04-13T19:58:09.428Z,98574.94
2024-04-13T20:00:37.604Z,98575.69
2024-04-13T20:03:05.944Z,98575.29
2024-04-13T20:05:35.190Z,98577.28
2024-04-13T20:08:04.104Z,98580.50
2024-04-13T20:10:32.125Z,98584.22
2024-04-13T20:13:00.146Z,98581.70
2024-04-13T20:15:46.447Z,98582.80
2024-04-13T20:18:32.752Z,98583.16
2024-04-13T20:21:00.562Z,98582.06
2024-04-13T20:23:28.295Z,98582.48
2024-04-13T20:25:56.072Z,98580.55
2024-04-13T20:28:23.949Z,98583.02
2024-04-13T20:30:51.950Z,98589.16
2024-04-13T20:33:21.508Z,98586.42
2024-04-13T20:35:52.417Z,98585.36
2024-04-13T20:38:20.615Z,98587.73
2024-04-13T20:40:48.612Z,98590.98
2024-04-13T20:43:16.408Z,98588.25
2024-04-13T20:45:44.142Z,98585.96
2024-04-13T20:48:12.313Z,98585.27
2024-04-13T20:50:41.561Z,98582.85
2024-04-13T20:53:09.640Z,98580.19
2024-04-13T20:55:37.418Z,98583.75
2024-04-13T20:58:05.192Z,98582.97
2024-04-13T21:00:36.404Z,98583.02
2024-04-13T21:03:04.523Z,98574.85
2024-04-13T21:05:33.962Z,98571.85
2024-04-13T21:08:03.066Z,98567.89
2024-04-13T21:10:31.238Z,98567.31
2024-04-13T21:13:01.035Z,98561.59
2024-04-13T21:15:35.111Z,98557.54
2024-04-13T21:18:05.913Z,98560.25
2024-04-13T21:20:33.843Z,98558.87
2024-04-13T21:23:01.699Z,98555.38
2024-04-13T21:25:29.654Z,98552.09
2024-04-13T21:27:58.522Z,98549.20
2024-04-13T21:30:26.459Z,98548.23
2024-04-13T21:32:54.238Z,98545.63
2024-04-13T21:35:22.095Z,98544.51
2024-04-13T21:37:57.199Z,98544.91
2024-04-13T21:40:28.606Z,98543.68
2024-04-13T21:42:56.427Z,98537.69
2024-04-13T21:45:24.227Z,98540.23
2024-04-13T21:47:52.078Z,98539.27
2024-04-13T21:50:20.819Z,98544.23
2024-04-13T21:52:48.595Z,98539.17
2024-04-13T21:55:17.086Z,98544.70
2024-04-13T21:57:44.862Z,98545.20
2024-04-13T22:00:15.474Z,98544.94
2024-04-13T22:02:43.181Z,98545.65
2024-04-13T22:05:10.987Z,98549.98
2024-04-13T22:07:38.780Z,98547.91
2024-04-13T22:10:08.517Z,98555.14
2024-04-13T22:12:36.211Z,98555.66
2024-04-13T22:15:05.296Z,98557.93
2024-04-13T22:17:33.165Z,98558.63
2024-04-13T22:20:01.388Z,98558.42
2024-04-13T22:22:29.184Z,98556.60
2024-04-13T22:24:57.326Z,98555.90
2024-04-13T22:27:25.185Z,98553.86
2024-04-13T22:29:54.978Z,98549.30
2024-04-13T22:32:22.743Z,98557.54
2024-04-13T22:34:50.542Z,98553.34
2024-04-13T22:37:19.696Z,98551.48
2024-04-13T22:39:47.490Z,98553.73
2024-04-13T22:42:15.479Z,98551.65
2024-04-13T22:44:43.564Z,98547.63
2024-04-13T22:47:12.619Z,98540.84
2024-04-13T22:49:40.472Z,98540.05
2024-04-13T22:52:08.250Z,98536.36
2024-04-13T22:54:36.277Z,98540.85
2024-04-13T22:57:04.688Z,98534.39
2024-04-13T22:59:32.755Z,98534.49
2024-04-13T23:02:00.859Z,98533.25
2024-04-13T23:04:28.878Z,98529.24
2024-04-13T23:06:57.187Z,98526.07
2024-04-13T23:09:25.034Z,98524.88
2024-04-13T23:11:52.795Z,98521.33
2024-04-13T23:14:20.530Z,98520.90
2024-04-13T23:16:48.274Z,98518.48
2024-04-13T23:19:16.182Z,98522.13
2024-04-13T23:21:44.037Z,98517.39
2024-04-13T23:24:11.809Z,98518.02
2024-04-13T23:26:40.841Z,98523.84
2024-04-13T23:29:08.642Z,98522.55
2024-04-13T23:31:41.697Z,98522.55
2024-04-13T23:34:09.423Z,98522.14
2024-04-13T23:36:38.797Z,98520.35
2024-04-13T23:39:11.317Z,98520.41
2024-04-13T23:41:39.080Z,98525.55
2024-04-13T23:44:13.591Z,98526.60
2024-04-13T23:46:42.407Z,98529.04
2024-04-13T23:49:10.361Z,98528.05
2024-04-13T23:51:38.258Z,98526.24
2024-04-13T23:54:06.292Z,98530.13
2024-04-13T23:56:34.862Z,98524.60
2024-04-13T23:59:02.702Z,98524.14
